United B772 at Honolulu on Jan 23rd 2023, runway incursion

Last Update: February 16, 2023 / 19:04:37 GMT/Zulu time

Bookmark this article
Incident Facts

Date of incident
Jan 23, 2023

Classification
Incident

Airline
United

Flight number
UA-384

Aircraft Registration
N774UA

Aircraft Type
Boeing 777-200

ICAO Type Designator
B772

Airport ICAO Code
PHNL

A United Boeing 777-200, registration N774UA performing flight UA-384 from Denver,CO to Honolulu,HI (USA), had landed on Honolulu's runway 04R and was instructed to hold short of runway 04L, the crew correctly read back that instruction. The crew vacated runway 04R via high speed turn off K and went past the hold short line runway 04L and runway 08L, tower instructed the crew to continue cross runway 08L and contact ground. On ground the crew was instructed to call a tower phone number.

A Kamaka Air Cessna 208 performing a scheduled flight from Lihue,HI to Honolulu,HI (USA), was landing on runway 04L at that time, touched down, slowed and vacated the runway via taxiway E about 360 meters/1200 feet short of the intersection of runway 04L, runway 08L and taxiway K.

On Feb 16th 2023 the NTSB reported: "NTSB investigating Jan. 23 runway incursion at Honolulu Int'l Airport that occurred when a United Boeing 777 crossed runway 4L and conflicted with Cessna 208B that was landing on runway 4L. No damage or injuries reported."




Metars:
PHNL 240353Z 23009KT 10SM FEW023 SCT034 BKN055 27/19 A2998 RMK AO2 SLP152 SHRA DSNT NW T02670189=
PHNL 240253Z 22009KT 10SM FEW022 FEW035 SCT050 27/19 A2997 RMK AO2 SLP149 VCSH NW AND N TCU DSIPTD T02720194 55001=
PHNL 240153Z 21010KT 10SM FEW023TCU FEW035 SCT050 28/20 A2997 RMK AO2 SLP147 VC TCU NE VCSH NW AND N-NE T02780200=
PHNL 240053Z 21009KT 10SM FEW023 FEW035 SCT070 28/21 A2997 RMK AO2 SLP147 T02780211=
PHNL 232353Z 22009KT 10SM FEW026 FEW035 SCT070 27/21 A2998 RMK AO2 SLP150 T02720206 10283 20217 56022=
PHNL 232253Z 20009KT 10SM FEW025 FEW038 28/19 A3000 RMK AO2 SLP157 T02780194=
Aircraft Registration Data
Registration mark
N774UA
Country of Registration
United States
Date of Registration
IqhAhpebhppl Subscribe to unlock
Manufacturer
BOEING
Aircraft Model / Type
777-222
Number of Seats
ICAO Aircraft Type
B772
Year of Manufacture
Serial Number
Aircraft Address / Mode S Code (HEX)
Engine Count
Engine Manufacturer
Engine Model
Main Owner
Lfkmdei jjncApqlA ipeedlqdgcemhmddgbmifAdAendc fddkAkijjlpqmAAj qdcdgpcAngkcdjkj eqkgb eghfghldndlgfj Subscribe to unlock
Incident Facts

Date of incident
Jan 23, 2023

Classification
Incident

Airline
United

Flight number
UA-384

Aircraft Registration
N774UA

Aircraft Type
Boeing 777-200

ICAO Type Designator
B772

Airport ICAO Code
PHNL

This article is published under license from Avherald.com. © of text by Avherald.com.
Article source

You can read 2 more free articles without a subscription.

Subscribe now and continue reading without any limits!

Are you a subscriber? Login
Subscribe

Read unlimited articles and receive our daily update briefing. Gain better insights into what is happening in commercial aviation safety.

Send tip

Support AeroInside by sending a small tip amount.

Related articles

Newest articles

Subscribe today

Are you researching aviation incidents? Get access to AeroInside Insights, unlimited read access and receive the daily newsletter.

Pick your plan and subscribe

Partner

Blockaviation logo

A new way to document and demonstrate airworthiness compliance and aircraft value. Find out more.

ELITE Logo

ELITE Simulation Solutions is a leading global provider of Flight Simulation Training Devices, IFR training software as well as flight controls and related services. Find out more.

Blue Altitude Logo

Your regulation partner, specialists in aviation safety and compliance; providing training, auditing, and consultancy services. Find out more.

AeroInside Blog
Popular aircraft
Airbus A320
Boeing 737-800
Boeing 737-800 MAX
Popular airlines
American Airlines
United
Delta
Air Canada
Lufthansa
British Airways